Terminal Aerodrome Forecast
Issued by NWS

Home | Current Version | Previous Version | Text Only | Print | Product List | Glossary On
Versions: 1 2 3 4 5 6 7 8 9 10 11 12 13
000
FTUS41 KCAR 261728
TAFPQI
TAF
KPQI 261728Z 2618/2718 03010KT P6SM -RA OVC013
     FM262100 04012KT P6SM OVC015
     FM262200 04012KT P6SM VCSH OVC020
     FM270800 01007KT P6SM SCT010=

USA.gov is the U.S. government's official web portal to all federal, state and local government web resources and services.